createdAt,value
2019-03-08T05:00:40.200Z,0.00
2019-03-08T05:01:41.333Z,0.00
2019-03-08T05:02:41.312Z,0.00
2019-03-08T05:03:41.312Z,0.00
2019-03-08T05:04:41.313Z,0.00
2019-03-08T05:05:41.291Z,0.00
2019-03-08T05:06:41.326Z,0.00
2019-03-08T05:07:41.271Z,0.00
2019-03-08T05:08:41.271Z,0.00
2019-03-08T05:09:41.370Z,0.00
2019-03-08T05:10:41.264Z,0.00
2019-03-08T05:11:41.308Z,0.00
2019-03-08T05:12:41.363Z,0.00
2019-03-08T05:13:41.275Z,0.00
2019-03-08T05:14:41.242Z,0.00
2019-03-08T05:15:41.226Z,0.00
2019-03-08T05:16:41.224Z,0.00
2019-03-08T05:17:41.230Z,0.00
2019-03-08T05:18:41.251Z,0.00
2019-03-08T05:19:41.203Z,0.00
2019-03-08T05:20:41.212Z,0.00
2019-03-08T05:21:41.211Z,0.00
2019-03-08T05:22:41.157Z,0.00
2019-03-08T05:23:41.148Z,0.00
2019-03-08T05:24:41.206Z,0.00
2019-03-08T05:25:41.152Z,0.00
2019-03-08T05:26:41.140Z,0.00
2019-03-08T05:27:41.148Z,0.00
2019-03-08T05:28:41.168Z,0.00
2019-03-08T05:29:41.144Z,0.00
2019-03-08T05:30:41.141Z,0.00
2019-03-08T05:31:41.123Z,0.00
2019-03-08T05:32:41.071Z,0.00
2019-03-08T05:33:41.095Z,0.00
2019-03-08T05:34:41.040Z,0.00
2019-03-08T05:35:41.094Z,0.00
2019-03-08T05:36:41.084Z,0.00
2019-03-08T05:37:41.053Z,0.00
2019-03-08T05:38:41.042Z,0.00
2019-03-08T05:39:41.013Z,0.00
2019-03-08T05:40:41.015Z,0.00
2019-03-08T05:41:41.011Z,0.00
2019-03-08T05:42:41.008Z,0.00
2019-03-08T05:43:40.992Z,0.00
2019-03-08T05:44:41.031Z,0.00
2019-03-08T05:45:41.041Z,0.00
2019-03-08T05:46:40.956Z,0.00
2019-03-08T05:47:41.002Z,0.00
2019-03-08T05:48:40.976Z,0.00
2019-03-08T05:49:41.004Z,0.00
2019-03-08T05:50:40.964Z,0.00
2019-03-08T05:51:40.990Z,5.62
2019-03-08T05:52:40.934Z,5.62
2019-03-08T05:53:40.937Z,5.62
2019-03-08T05:54:40.926Z,5.62
2019-03-08T05:55:40.918Z,5.62
2019-03-08T05:56:40.894Z,5.62
2019-03-08T05:57:40.908Z,5.62
2019-03-08T05:58:40.874Z,5.62
2019-03-08T05:59:40.864Z,5.62
2019-03-08T06:00:40.883Z,5.62
2019-03-08T06:01:40.887Z,11.25
2019-03-08T06:02:40.855Z,11.25
2019-03-08T06:03:40.833Z,11.25
2019-03-08T06:04:40.851Z,16.88
2019-03-08T06:05:40.842Z,16.88
2019-03-08T06:06:40.832Z,16.88
2019-03-08T06:07:40.813Z,16.88
2019-03-08T06:08:40.818Z,16.88
2019-03-08T06:09:40.808Z,16.88
2019-03-08T06:10:40.793Z,22.50
2019-03-08T06:11:40.795Z,22.50
2019-03-08T06:12:40.799Z,22.50
2019-03-08T06:13:40.816Z,28.12
2019-03-08T06:14:40.785Z,28.12
2019-03-08T06:15:40.844Z,33.75
2019-03-08T06:16:40.772Z,33.75
2019-03-08T06:17:40.746Z,33.75
2019-03-08T06:18:40.742Z,33.75
2019-03-08T06:19:40.758Z,33.75
2019-03-08T06:20:40.830Z,33.75
2019-03-08T06:21:40.758Z,39.38
2019-03-08T06:22:40.736Z,33.75
2019-03-08T06:23:40.713Z,33.75
2019-03-08T06:24:40.692Z,33.75
2019-03-08T06:25:41.774Z,33.75
2019-03-08T06:26:40.688Z,28.12
2019-03-08T06:27:40.724Z,28.12
2019-03-08T06:28:40.719Z,22.50
2019-03-08T06:29:40.702Z,22.50
2019-03-08T06:30:40.662Z,22.50
2019-03-08T06:31:40.661Z,22.50
2019-03-08T06:32:40.661Z,28.12
2019-03-08T06:33:40.642Z,28.12
2019-03-08T06:34:40.669Z,28.12
2019-03-08T06:35:40.654Z,22.50
2019-03-08T06:36:40.673Z,22.50
2019-03-08T06:37:40.663Z,22.50
2019-03-08T06:38:40.633Z,22.50
2019-03-08T06:39:40.602Z,22.50
2019-03-08T06:40:40.610Z,16.88
2019-03-08T06:41:40.616Z,16.88
2019-03-08T06:42:40.872Z,22.50
2019-03-08T06:43:40.625Z,22.50
2019-03-08T06:44:40.598Z,22.50
2019-03-08T06:45:40.613Z,28.12
2019-03-08T06:46:40.548Z,28.12
2019-03-08T06:47:40.533Z,28.12
2019-03-08T06:48:40.697Z,28.12
